KMSS

Massena International-Richards Field Airport

Massena, New York, USA
METAR KMSS 260253Z AUTO 23011G20KT 10SM CLR 05/00 A2988 RMK AO2 SLP124 T00500000 53025
Observed Flight Rules
Feb-26 @ 02:53 UTC (40 minutes ago) Visual Flight Rules
Wind Visibility Clouds
230° at 11 knots
 Gusting to 20 knots
10 miles
  • Clear skies
Temperatures Readings
Current 5°C / 41°F
Dewpoint 0°C / 32°F
Humidity 70%
Altimeter 29.88" Hg
Pressure 1012.4 hPa
Elevation 66
METAR KMSS 260253Z AUTO 23011G20KT 10SM CLR 05/00 A2988 RMK AO2 SLP124 T00500000 53025
Observed Flight Rules
Feb-26 @ 02:53 UTC
(40 minutes ago)
VFR
Wind Visibility
230° at 11 knots
 Gusting to 20 knots
10 miles
Clouds
  • Clear skies
Temperature Dewpoint
5°C / 41°F 0°C / 32°F
Humidity Altimeter Pressure
70% 29.88" Hg 1012.4 hPa